createdAt,value
2019-03-20T00:00:12.399Z,28.83
2019-03-20T00:02:51.847Z,28.32
2019-03-20T00:05:30.624Z,28.65
2019-03-20T00:08:09.474Z,28.83
2019-03-20T00:10:47.110Z,29.48
2019-03-20T00:13:26.010Z,30.85
2019-03-20T00:16:04.246Z,29.63
2019-03-20T00:18:44.116Z,28.85
2019-03-20T00:21:23.065Z,28.23
2019-03-20T00:24:01.614Z,29.70
2019-03-20T00:26:39.384Z,28.47
2019-03-20T00:29:18.078Z,27.80
2019-03-20T00:31:56.975Z,26.95
2019-03-20T00:34:35.422Z,28.42
2019-03-20T00:37:13.655Z,28.57
2019-03-20T00:39:52.627Z,27.67
2019-03-20T00:42:29.939Z,28.67
2019-03-20T00:45:12.938Z,27.93
2019-03-20T00:47:51.149Z,26.95
2019-03-20T00:50:30.514Z,27.13
2019-03-20T00:53:08.626Z,26.42
2019-03-20T00:55:48.731Z,26.30
2019-03-20T00:58:27.295Z,25.32
2019-03-20T01:01:05.663Z,25.35
2019-03-20T01:03:44.657Z,26.23
2019-03-20T01:06:24.877Z,26.20
2019-03-20T01:09:04.105Z,27.07
2019-03-20T01:11:45.912Z,25.65
2019-03-20T01:14:27.295Z,26.10
2019-03-20T01:17:05.734Z,27.17
2019-03-20T01:19:44.939Z,27.25
2019-03-20T01:22:32.624Z,27.32
2019-03-20T01:25:11.424Z,24.90
2019-03-20T01:27:49.569Z,25.12
2019-03-20T01:30:36.094Z,24.95
2019-03-20T01:33:15.869Z,24.77
2019-03-20T01:35:54.499Z,25.68
2019-03-20T01:38:32.064Z,24.55
2019-03-20T01:41:10.100Z,25.23
2019-03-20T01:43:50.207Z,25.00
2019-03-20T01:46:27.837Z,24.85
2019-03-20T01:49:05.961Z,24.55
2019-03-20T01:51:43.824Z,23.52
2019-03-20T01:54:22.532Z,23.77
2019-03-20T01:57:00.142Z,22.25
2019-03-20T01:59:38.415Z,22.67
2019-03-20T02:02:16.720Z,22.60
2019-03-20T02:04:55.996Z,22.00
2019-03-20T02:07:35.721Z,22.75
2019-03-20T02:10:17.542Z,24.10
2019-03-20T02:12:58.475Z,24.52
2019-03-20T02:15:39.224Z,22.77
2019-03-20T02:18:15.335Z,24.05
2019-03-20T02:20:54.106Z,24.15
2019-03-20T02:23:32.123Z,24.30
2019-03-20T02:26:11.019Z,23.83
2019-03-20T02:28:48.286Z,24.00
2019-03-20T02:31:26.584Z,24.70
2019-03-20T02:34:04.689Z,24.50
2019-03-20T02:36:43.662Z,23.75
2019-03-20T02:39:25.013Z,24.20
2019-03-20T02:42:04.290Z,25.20
2019-03-20T02:44:42.991Z,23.98
2019-03-20T02:47:22.331Z,24.92
2019-03-20T02:50:01.247Z,24.47
2019-03-20T02:52:41.090Z,24.65
2019-03-20T02:55:20.494Z,25.43
2019-03-20T02:57:59.707Z,24.87
2019-03-20T03:00:38.139Z,23.90
2019-03-20T03:03:16.849Z,22.55
2019-03-20T03:06:06.091Z,22.40
2019-03-20T03:08:35.488Z,22.48
2019-03-20T03:11:20.059Z,21.25
2019-03-20T03:14:01.618Z,21.95
2019-03-20T03:16:39.951Z,22.15
2019-03-20T03:19:18.496Z,23.10
2019-03-20T03:21:57.004Z,21.65
2019-03-20T03:24:35.891Z,21.45
2019-03-20T03:27:13.572Z,22.13
2019-03-20T03:29:53.757Z,21.93
2019-03-20T03:32:34.073Z,22.37
2019-03-20T03:35:18.178Z,20.80
2019-03-20T03:37:58.060Z,20.50
2019-03-20T03:40:37.157Z,20.85
2019-03-20T03:43:16.914Z,20.68
2019-03-20T03:45:56.719Z,22.40
2019-03-20T03:48:34.613Z,21.60
2019-03-20T03:51:15.329Z,20.23
2019-03-20T03:53:53.237Z,20.08
2019-03-20T03:56:31.711Z,20.37
2019-03-20T03:59:10.180Z,20.23
2019-03-20T04:01:52.113Z,20.82
2019-03-20T04:04:31.365Z,21.73
2019-03-20T04:07:10.045Z,22.30
2019-03-20T04:09:48.114Z,22.00
2019-03-20T04:12:27.083Z,21.00
2019-03-20T04:15:05.947Z,22.00
2019-03-20T04:17:46.132Z,21.52
2019-03-20T04:20:24.682Z,21.12
2019-03-20T04:23:06.211Z,21.15
2019-03-20T04:25:45.279Z,22.10
2019-03-20T04:28:24.214Z,21.80
2019-03-20T04:31:02.567Z,21.87
2019-03-20T04:33:45.026Z,21.05
2019-03-20T04:36:23.252Z,21.70
2019-03-20T04:39:05.992Z,21.93
2019-03-20T04:41:43.824Z,21.23
2019-03-20T04:44:23.706Z,21.25
2019-03-20T04:47:03.835Z,18.77
2019-03-20T04:49:42.505Z,21.15
2019-03-20T04:52:20.209Z,20.43
2019-03-20T04:54:58.471Z,21.15
2019-03-20T04:57:35.971Z,20.32
2019-03-20T05:00:17.508Z,19.30
2019-03-20T05:02:55.163Z,18.75
2019-03-20T05:05:37.089Z,19.77
2019-03-20T05:08:14.875Z,18.90
2019-03-20T05:10:52.947Z,19.40
2019-03-20T05:13:31.999Z,20.05
2019-03-20T05:16:10.042Z,19.07
2019-03-20T05:18:48.945Z,18.85
2019-03-20T05:21:28.519Z,19.15
2019-03-20T05:24:10.067Z,18.23
2019-03-20T05:26:50.918Z,18.90
2019-03-20T05:29:29.355Z,19.37
2019-03-20T05:32:08.343Z,20.35
2019-03-20T05:34:46.854Z,19.05
2019-03-20T05:37:27.689Z,19.80
2019-03-20T05:40:05.916Z,18.50
2019-03-20T05:42:45.072Z,18.80
2019-03-20T05:45:24.782Z,19.75
2019-03-20T05:48:03.224Z,19.12
2019-03-20T05:50:44.627Z,20.20
2019-03-20T05:53:23.509Z,19.48
2019-03-20T05:56:03.628Z,19.32
2019-03-20T05:58:45.330Z,17.87
2019-03-20T06:01:27.424Z,18.90
2019-03-20T06:19:15.377Z,17.12
2019-03-20T06:21:55.422Z,17.48
2019-03-20T06:24:34.720Z,17.90
2019-03-20T06:27:13.029Z,17.57
2019-03-20T06:29:53.998Z,17.05
2019-03-20T06:32:33.303Z,17.98
2019-03-20T06:35:16.572Z,18.90
2019-03-20T06:37:56.824Z,17.95
2019-03-20T06:40:36.727Z,18.98
2019-03-20T06:43:16.011Z,17.45
2019-03-20T06:45:54.766Z,19.05
2019-03-20T06:48:35.211Z,19.27
2019-03-20T06:51:13.018Z,19.65
2019-03-20T06:53:52.354Z,19.15
2019-03-20T06:56:30.860Z,18.67
2019-03-20T06:59:52.457Z,20.17
2019-03-20T07:02:37.032Z,20.08
2019-03-20T07:05:43.664Z,19.15
2019-03-20T07:08:29.186Z,18.75
2019-03-20T07:11:19.414Z,18.23
2019-03-20T07:13:57.781Z,18.00
2019-03-20T07:16:36.696Z,18.77
2019-03-20T07:19:14.632Z,18.70
2019-03-20T07:21:52.891Z,17.98
2019-03-20T07:24:33.299Z,19.02
2019-03-20T07:27:12.958Z,19.55
2019-03-20T07:29:51.196Z,18.87
2019-03-20T07:32:30.128Z,18.98
2019-03-20T07:35:10.655Z,19.15
2019-03-20T07:37:56.002Z,19.00
2019-03-20T07:40:30.215Z,18.57
2019-03-20T07:43:09.383Z,19.32
2019-03-20T07:45:48.724Z,18.77
2019-03-20T07:48:28.559Z,19.65
2019-03-20T07:51:06.820Z,20.15
2019-03-20T07:53:49.011Z,17.45
2019-03-20T07:56:30.100Z,17.50
2019-03-20T07:59:08.052Z,17.73
2019-03-20T08:01:46.113Z,17.35
2019-03-20T08:04:25.719Z,15.88
2019-03-20T08:07:03.781Z,16.62
2019-03-20T08:09:42.210Z,16.45
2019-03-20T08:12:20.301Z,16.17
2019-03-20T08:14:58.583Z,16.00
2019-03-20T08:17:36.775Z,16.15
2019-03-20T08:20:16.808Z,15.85
2019-03-20T08:22:55.310Z,16.02
2019-03-20T08:25:33.658Z,15.53
2019-03-20T08:28:13.031Z,16.15
2019-03-20T08:30:51.211Z,14.43
2019-03-20T08:33:29.465Z,14.55
2019-03-20T08:36:07.812Z,15.25
2019-03-20T08:38:46.117Z,14.85
2019-03-20T08:41:24.923Z,13.95
2019-03-20T08:44:03.494Z,13.62
2019-03-20T08:46:41.056Z,13.60
2019-03-20T08:49:19.472Z,14.13
2019-03-20T08:51:58.716Z,14.13
2019-03-20T08:54:37.122Z,14.63
2019-03-20T08:57:16.842Z,13.98
2019-03-20T08:59:55.825Z,13.15
2019-03-20T09:02:37.975Z,13.48
2019-03-20T09:07:53.880Z,13.98
2019-03-20T09:10:34.781Z,13.68
2019-03-20T09:13:13.124Z,14.18
2019-03-20T09:15:52.278Z,14.23
2019-03-20T09:18:32.295Z,13.78
2019-03-20T09:21:11.758Z,14.63
2019-03-20T09:24:05.249Z,13.58
2019-03-20T09:26:45.178Z,13.32
2019-03-20T09:29:35.661Z,13.95
2019-03-20T09:32:14.077Z,14.07
2019-03-20T09:34:55.438Z,13.85
2019-03-20T09:37:39.324Z,12.77
2019-03-20T09:40:23.457Z,14.15
2019-03-20T09:45:42.826Z,14.05
2019-03-20T09:48:24.114Z,12.05
2019-03-20T09:51:05.815Z,13.75
2019-03-20T09:53:44.089Z,15.05
2019-03-20T09:56:30.991Z,14.10
2019-03-20T09:59:15.603Z,12.53
2019-03-20T10:01:55.788Z,14.55
2019-03-20T10:04:36.127Z,13.55
2019-03-20T10:07:18.768Z,13.48
2019-03-20T10:09:58.442Z,13.58
2019-03-20T10:12:41.311Z,14.55
2019-03-20T10:15:21.208Z,14.45
2019-03-20T10:18:01.077Z,14.33
2019-03-20T10:20:42.308Z,14.03
2019-03-20T10:23:22.312Z,13.48
2019-03-20T10:26:02.201Z,13.67
2019-03-20T10:28:49.794Z,14.98
2019-03-20T10:31:32.515Z,15.58
2019-03-20T10:34:17.707Z,14.73
2019-03-20T10:36:59.397Z,13.80
2019-03-20T10:39:43.175Z,15.18
2019-03-20T10:42:21.143Z,16.75
2019-03-20T10:45:04.264Z,14.70
2019-03-20T10:47:44.831Z,14.70
2019-03-20T10:50:23.952Z,17.00
2019-03-20T10:53:05.506Z,14.75
2019-03-20T10:55:43.662Z,15.43
2019-03-20T10:58:23.418Z,15.35
2019-03-20T11:01:01.770Z,14.60
2019-03-20T11:03:47.144Z,15.28
2019-03-20T11:06:29.634Z,16.10
2019-03-20T11:09:18.516Z,15.18
2019-03-20T11:11:56.077Z,16.50
2019-03-20T11:14:36.489Z,17.65
2019-03-20T11:17:15.266Z,16.45
2019-03-20T11:19:56.311Z,16.55
2019-03-20T11:22:35.103Z,15.28
2019-03-20T11:25:14.767Z,15.48
2019-03-20T11:27:56.618Z,18.70
2019-03-20T11:30:36.616Z,15.45
2019-03-20T11:33:14.973Z,15.78
2019-03-20T11:35:53.591Z,14.70
2019-03-20T11:38:34.727Z,17.15
2019-03-20T11:41:14.529Z,14.65
2019-03-20T11:43:52.884Z,15.03
2019-03-20T11:46:30.899Z,14.10
2019-03-20T11:49:10.337Z,16.02
2019-03-20T11:51:47.742Z,14.58
2019-03-20T11:54:26.696Z,14.95
2019-03-20T11:57:05.683Z,14.20
2019-03-20T11:59:44.971Z,14.70
2019-03-20T12:02:28.052Z,14.25
2019-03-20T12:05:02.509Z,14.07
2019-03-20T12:07:40.981Z,14.95
2019-03-20T12:10:23.373Z,14.93
2019-03-20T12:13:02.426Z,14.83
2019-03-20T12:15:41.205Z,14.63
2019-03-20T12:18:19.498Z,14.93
2019-03-20T12:20:56.856Z,15.53
2019-03-20T12:23:34.771Z,16.15
2019-03-20T12:26:13.476Z,15.72
2019-03-20T12:28:53.581Z,15.83
2019-03-20T12:31:30.994Z,15.75
2019-03-20T12:34:08.470Z,16.00
2019-03-20T12:36:49.695Z,15.90
2019-03-20T12:39:29.383Z,16.67
2019-03-20T12:42:10.085Z,16.40
2019-03-20T12:44:48.502Z,17.98
2019-03-20T12:47:26.434Z,17.67
2019-03-20T12:50:04.163Z,16.97
2019-03-20T12:52:42.044Z,16.97
2019-03-20T12:55:20.842Z,17.87
2019-03-20T12:57:58.834Z,17.12
2019-03-20T13:00:40.738Z,18.20
2019-03-20T13:03:19.884Z,17.98
2019-03-20T13:05:58.322Z,18.02
2019-03-20T13:08:40.203Z,17.60
2019-03-20T13:11:23.189Z,16.77
2019-03-20T13:14:03.494Z,17.82
2019-03-20T13:16:43.301Z,17.98
2019-03-20T13:19:22.077Z,18.48
2019-03-20T13:22:02.631Z,17.77
2019-03-20T13:24:40.838Z,18.10
2019-03-20T13:27:20.316Z,19.55
2019-03-20T13:29:58.198Z,18.20
2019-03-20T13:32:36.867Z,17.45
2019-03-20T13:35:15.639Z,18.80
2019-03-20T13:37:58.661Z,18.30
2019-03-20T13:40:37.509Z,17.75
2019-03-20T13:43:16.914Z,18.80
2019-03-20T13:45:54.593Z,17.82
2019-03-20T13:48:33.410Z,17.55
2019-03-20T13:51:14.343Z,18.10
2019-03-20T13:53:52.853Z,18.12
2019-03-20T13:56:39.492Z,18.48
2019-03-20T13:59:20.481Z,17.98
2019-03-20T14:01:58.841Z,16.95
2019-03-20T14:04:39.706Z,16.87
2019-03-20T14:07:19.052Z,16.32
2019-03-20T14:10:06.992Z,16.73
2019-03-20T14:12:45.188Z,16.93
2019-03-20T14:15:23.442Z,17.48
2019-03-20T14:18:01.742Z,17.45
2019-03-20T14:20:41.828Z,16.20
2019-03-20T14:23:25.982Z,16.77
2019-03-20T14:26:05.115Z,16.27
2019-03-20T14:28:44.626Z,17.37
2019-03-20T14:31:38.312Z,15.40
2019-03-20T14:37:28.415Z,16.00
2019-03-20T14:40:07.112Z,16.00
2019-03-20T14:42:44.963Z,15.40
2019-03-20T14:45:23.107Z,15.72
2019-03-20T14:48:03.603Z,15.50
2019-03-20T14:50:44.750Z,15.80
2019-03-20T14:53:22.985Z,15.00
2019-03-20T14:56:03.620Z,15.43
2019-03-20T14:58:43.170Z,14.38
2019-03-20T15:01:20.956Z,15.80
2019-03-20T15:03:59.902Z,14.80
2019-03-20T15:06:37.635Z,16.40
2019-03-20T15:09:18.197Z,15.55
2019-03-20T15:11:55.693Z,15.20
2019-03-20T15:14:35.153Z,15.45
2019-03-20T15:17:13.209Z,15.28
2019-03-20T15:19:51.264Z,15.65
2019-03-20T15:22:30.192Z,14.90
2019-03-20T15:25:08.630Z,15.65
2019-03-20T15:27:48.391Z,15.75
2019-03-20T15:30:29.727Z,17.02
2019-03-20T15:33:10.421Z,15.08
2019-03-20T15:35:49.608Z,15.13
2019-03-20T15:38:28.569Z,16.67
2019-03-20T15:41:08.051Z,16.25
2019-03-20T15:43:49.899Z,16.80
2019-03-20T15:46:30.839Z,15.50
2019-03-20T15:49:11.334Z,16.02
2019-03-20T15:51:49.283Z,15.23
2019-03-20T15:54:29.059Z,15.32
2019-03-20T15:57:10.364Z,14.55
2019-03-20T15:59:49.552Z,14.75
2019-03-20T16:02:47.350Z,13.45
2019-03-20T16:05:25.580Z,13.85
2019-03-20T16:08:06.836Z,13.60
2019-03-20T16:13:23.548Z,14.35
2019-03-20T16:16:05.198Z,15.30
2019-03-20T16:18:45.264Z,16.82
2019-03-20T16:21:23.580Z,15.53
2019-03-20T16:24:03.312Z,15.63
2019-03-20T16:26:45.903Z,15.72
2019-03-20T16:29:25.031Z,14.55
2019-03-20T16:32:05.105Z,16.45
2019-03-20T16:34:44.668Z,16.37
2019-03-20T16:37:25.266Z,15.15
2019-03-20T16:40:04.576Z,15.88
2019-03-20T16:42:42.983Z,16.20
2019-03-20T16:45:28.469Z,14.90
2019-03-20T16:48:06.662Z,14.20
2019-03-20T16:50:44.762Z,14.68
2019-03-20T16:53:23.026Z,13.60
2019-03-20T16:56:02.020Z,14.35
2019-03-20T16:58:40.722Z,14.58
2019-03-20T17:01:19.881Z,14.18
2019-03-20T17:03:58.452Z,14.28
2019-03-20T17:06:37.459Z,14.15
2019-03-20T17:09:16.125Z,15.48
2019-03-20T17:11:54.729Z,14.83
2019-03-20T17:14:33.230Z,14.63
2019-03-20T17:17:13.276Z,15.28
2019-03-20T17:19:52.686Z,14.98
2019-03-20T17:22:41.914Z,15.10
2019-03-20T17:25:19.652Z,15.60
2019-03-20T17:27:59.185Z,16.75
2019-03-20T17:34:06.867Z,14.85
2019-03-20T17:37:01.888Z,14.75
2019-03-20T17:39:58.501Z,15.55
2019-03-20T17:42:41.173Z,14.53
2019-03-20T17:45:20.087Z,15.40
2019-03-20T17:47:59.855Z,16.10
2019-03-20T17:50:38.567Z,15.88
2019-03-20T17:53:18.099Z,15.23
2019-03-20T17:55:55.609Z,15.38
2019-03-20T17:58:34.902Z,15.88
2019-03-20T18:01:16.100Z,15.68
2019-03-20T18:03:54.335Z,15.10
2019-03-20T18:06:33.495Z,15.15
2019-03-20T18:09:16.741Z,13.15
2019-03-20T18:11:58.177Z,13.98
2019-03-20T18:14:39.413Z,14.03
2019-03-20T18:17:18.388Z,14.95
2019-03-20T18:19:57.025Z,15.63
2019-03-20T18:22:35.589Z,14.60
2019-03-20T18:25:14.327Z,15.70
2019-03-20T18:27:53.874Z,14.95
2019-03-20T18:30:35.060Z,15.25
2019-03-20T18:33:17.772Z,15.00
2019-03-20T18:35:58.291Z,14.83
2019-03-20T18:38:36.729Z,14.90
2019-03-20T18:41:16.143Z,15.15
2019-03-20T18:43:55.727Z,15.10
2019-03-20T18:46:34.702Z,14.75
2019-03-20T18:49:13.300Z,16.25
2019-03-20T18:51:51.431Z,15.80
2019-03-20T18:54:29.791Z,15.35
2019-03-20T18:57:07.688Z,15.10
2019-03-20T18:59:46.107Z,13.83
2019-03-20T19:02:24.477Z,14.43
2019-03-20T19:05:03.930Z,15.43
2019-03-20T19:07:42.263Z,15.48
2019-03-20T19:10:21.647Z,14.95
2019-03-20T19:13:01.505Z,14.63
2019-03-20T19:15:44.616Z,15.18
2019-03-20T19:18:23.149Z,16.42
2019-03-20T19:21:02.378Z,16.50
2019-03-20T19:23:42.573Z,16.65
2019-03-20T19:26:21.688Z,16.25
2019-03-20T19:29:01.906Z,17.80
2019-03-20T19:31:43.260Z,16.97
2019-03-20T19:34:22.543Z,16.70
2019-03-20T19:37:02.732Z,16.45
2019-03-20T19:39:40.857Z,16.45
2019-03-20T19:42:20.137Z,14.68
2019-03-20T19:44:59.714Z,14.38
2019-03-20T19:47:38.702Z,14.53
2019-03-20T19:50:17.328Z,15.28
2019-03-20T19:52:55.618Z,14.28
2019-03-20T19:55:35.153Z,14.40
2019-03-20T19:58:13.038Z,14.70
2019-03-20T20:00:55.228Z,14.65
2019-03-20T20:03:34.577Z,14.23
2019-03-20T20:06:14.212Z,14.25
2019-03-20T20:08:54.265Z,14.23
2019-03-20T20:11:39.523Z,13.95
2019-03-20T20:14:18.272Z,13.68
2019-03-20T20:16:56.480Z,13.80
2019-03-20T20:19:37.841Z,14.63
2019-03-20T20:22:16.475Z,15.28
2019-03-20T20:24:56.862Z,13.98
2019-03-20T20:27:35.783Z,13.72
2019-03-20T20:30:18.679Z,14.18
2019-03-20T20:32:59.640Z,13.98
2019-03-20T20:38:19.882Z,15.25
2019-03-20T20:40:59.437Z,14.60
2019-03-20T20:43:39.723Z,14.60
2019-03-20T20:46:17.170Z,15.53
2019-03-20T20:48:56.618Z,15.48
2019-03-20T20:51:34.919Z,15.43
2019-03-20T20:54:14.453Z,15.72
2019-03-20T20:56:52.370Z,16.12
2019-03-20T20:59:31.055Z,16.57
2019-03-20T21:02:09.822Z,17.02
2019-03-20T21:04:56.280Z,18.37
2019-03-20T21:07:35.628Z,17.85
2019-03-20T21:10:17.904Z,18.17
2019-03-20T21:12:59.060Z,18.95
2019-03-20T21:15:48.555Z,19.35
2019-03-20T21:19:00.598Z,22.27
2019-03-20T21:21:54.774Z,30.25
2019-03-20T21:24:38.114Z,19.95
2019-03-20T21:28:03.007Z,20.72
2019-03-20T21:30:49.380Z,16.90
2019-03-20T21:34:18.537Z,17.60
2019-03-20T21:37:25.056Z,15.98
2019-03-20T21:40:05.574Z,17.73
2019-03-20T21:43:21.768Z,17.27
2019-03-20T21:46:32.931Z,16.70
2019-03-20T21:49:15.131Z,16.77
2019-03-20T21:51:56.805Z,16.95
2019-03-20T21:55:30.619Z,16.00
2019-03-20T21:58:24.829Z,30.02
2019-03-20T22:01:37.678Z,28.70
2019-03-20T22:04:16.352Z,17.65
2019-03-20T22:07:11.808Z,16.35
2019-03-20T22:10:30.922Z,17.35
2019-03-20T22:13:36.227Z,16.65
2019-03-20T22:16:55.441Z,16.27
2019-03-20T22:19:46.300Z,17.30
2019-03-20T22:23:20.663Z,15.45
2019-03-20T22:26:56.064Z,15.15
2019-03-20T22:29:38.330Z,15.53
2019-03-20T22:32:56.995Z,15.68
2019-03-20T22:35:56.147Z,16.97
2019-03-20T22:39:28.679Z,17.02
2019-03-20T22:42:47.335Z,16.10
2019-03-20T22:46:07.404Z,16.32
2019-03-20T22:49:21.101Z,15.90
2019-03-20T22:52:34.833Z,15.88
2019-03-20T22:55:56.233Z,16.90
2019-03-20T22:58:51.946Z,16.90
2019-03-20T23:01:43.234Z,16.10
2019-03-20T23:04:33.199Z,28.98
2019-03-20T23:07:11.423Z,17.48
2019-03-20T23:09:51.769Z,17.02
2019-03-20T23:12:32.003Z,17.17
2019-03-20T23:15:13.739Z,17.25
2019-03-20T23:17:54.010Z,16.70
2019-03-20T23:20:35.554Z,16.23
2019-03-20T23:23:14.732Z,16.77
2019-03-20T23:25:59.108Z,16.60
2019-03-20T23:28:40.730Z,15.83
2019-03-20T23:31:19.846Z,17.15
2019-03-20T23:33:59.879Z,17.05
2019-03-20T23:36:43.147Z,17.73
2019-03-20T23:39:21.669Z,16.95
2019-03-20T23:42:00.995Z,16.67
2019-03-20T23:44:53.203Z,17.25
2019-03-20T23:47:41.575Z,16.70
2019-03-20T23:50:20.636Z,18.37
2019-03-20T23:53:03.083Z,17.10
2019-03-20T23:55:52.485Z,16.73
2019-03-20T23:58:31.730Z,16.82
